Ikarus — SWEW — position and weather

sailwx.info

Track history (hours):
 
Tides and Currents Weather Stations Pressure Air Temp Water Temp Dewpoint Dewpoint Depression Visibility Wind Speed Wind Dir Waves Ship Positions

Ikarus

Last reported at 2016-May-21 10:05 UTC. Time now 2016-Aug-26 03:16 UTC.
Position N 40°50' E 014°16'.
Warning: this ship's position is months out of date.

Length 200 m; draft 6.2 m.

Type: Passenger vessel. MMSI: 239513000.

Date/timePositionNaut miles runAvg speedWind from/ knotsBaromVisibWave heightAir tempDewpointWater temp
2016-May-21 10:05N 40°50' E 014°16'0 0.0
2016-May-21 09:29N 40°50' E 014°16'0 0.0
2016-May-21 08:29N 40°50' E 014°16'0 0.0
2016-May-21 07:23N 40°50' E 014°16'0 0.0
2016-May-21 06:05N 40°50' E 014°16'0 0.0
2016-May-21 04:29N 40°50' E 014°16'0 0.0
2016-May-21 03:29N 40°50' E 014°16'0 0.0
2016-May-21 02:29N 40°50' E 014°16'0 0.0
2016-May-21 01:29N 40°50' E 014°16'0 0.0
2016-May-21 00:23N 40°50' E 014°16'0 0.0
2016-May-20 23:29N 40°50' E 014°16'0 0.0
2016-May-20 22:29N 40°50' E 014°16'0 0.0
2016-May-20 21:23N 40°50' E 014°16'0 0.0
2016-May-20 20:29N 40°50' E 014°16'0 0.0
2016-May-20 19:23N 40°50' E 014°16'0 0.0
2016-May-20 18:29N 40°50' E 014°16'0 0.0
2016-May-20 17:23N 40°50' E 014°16'0 0.0
2016-May-20 16:29N 40°50' E 014°16'0 0.0
2016-May-20 15:29N 40°50' E 014°16'0 0.0
2016-May-20 14:29N 40°50' E 014°16'0 0.0
2016-May-20 13:29N 40°50' E 014°16'0 0.0
2016-May-20 12:05N 40°50' E 014°16'0 0.0
2016-May-20 11:29N 40°50' E 014°16'0 0.0
2016-May-20 09:18N 40°50' E 014°16'6 8.0
2016-May-20 08:33N 40°45' E 014°14'1918.6
2016-May-20 07:33N 40°39' E 013°51'2020.4
2016-May-20 06:34N 40°43' E 013°24'2522.9
2016-May-20 05:27N 40°48' E 012°52'13723.2
2016-May-19 23:33N 42°21' E 010°36'4921.9
2016-May-19 21:20N 43°04' E 010°07'1925.2
2016-May-19 20:34N 43°23' E 010°11'1312.6
2016-May-19 19:33N 43°35' E 010°18'0 0.0
2016-May-19 18:33N 43°35' E 010°18'0 0.0
2016-May-19 17:33N 43°35' E 010°18'0 0.0
2016-May-19 16:33N 43°35' E 010°18'0 0.2
2016-May-19 15:34N 43°35' E 010°18'6 6.2
2016-May-19 14:34N 43°30' E 010°12'2423.6
2016-May-19 13:34N 43°27' E 009°40'2424.3
2016-May-19 12:34N 43°18' E 009°09'33223.7
2016-May-18 22:33N 41°20' E 002°10'2 0.6
2016-May-18 18:33N 41°22' E 002°11'6 5.7
2016-May-18 17:33N 41°16' E 002°11'2020.0
2016-May-18 16:33N 40°58' E 001°59'2121.5
2016-May-18 15:33N 40°39' E 001°46'2221.8
2016-May-18 14:33N 40°20' E 001°33'2221.8
2016-May-18 13:33N 40°00' E 001°20'2221.9
2016-May-18 12:33N 39°40' E 001°07'2221.9
2016-May-18 11:33N 39°21' E 000°54'2221.5
2016-May-18 10:33N 39°02' E 000°41'2421.7
2016-May-18 09:28N 38°42' E 000°26'1921.0
2016-May-18 08:33N 38°25' E 000°13'2121.5
2016-May-18 07:33N 38°07' W 000°02'2120.7
2016-May-18 06:33N 37°50' W 000°16'2120.9
2016-May-18 05:33N 37°33' W 000°31'2120.7
2016-May-18 04:33N 37°19' W 000°51'2220.7
2016-May-18 03:28N 37°04' W 001°12'20520.7
2016-May-17 17:33N 35°59' W 005°13'14 1.3
2016-May-17 07:06N 35°56' W 005°30'612.0
2016-May-17 06:33N 35°60' W 005°23'21915.1
2016-May-16 16:03N 37°12' W 001°06'816.7
2016-May-16 15:33N 37°18' W 000°58'1716.8
2016-May-16 14:34N 37°29' W 000°42'1716.6
2016-May-16 13:34N 37°41' W 000°28'1716.7
2016-May-16 12:33N 37°55' W 000°16'1716.9
2016-May-16 11:33N 38°09' W 000°05'1716.9
2016-May-16 10:33N 38°23' E 000°07'5116.8
2016-May-16 07:31N 39°07' E 000°40'4916.6
2016-May-16 04:33N 39°51' E 001°10'1716.7
2016-May-16 03:33N 40°06' E 001°20'1717.1
2016-May-16 02:33N 40°20' E 001°31'1716.7
2016-May-16 01:33N 40°35' E 001°42'1616.2
2016-May-16 00:33N 40°50' E 001°51'1716.5
2016-May-15 23:33N 41°04' E 002°02'1515.2
2016-May-15 22:33N 41°18' E 002°11'4 4.1
2016-May-15 21:32N 41°22' E 002°11'5 0.7
2016-May-15 15:17N 41°17' E 002°11'1115.5
2016-May-15 14:33N 41°23' E 002°24'37218.6
2016-May-14 18:33N 43°32' E 010°17'3 2.5
2016-May-14 17:31N 43°35' E 010°18'0 0.0
2016-May-14 16:28N 43°35' E 010°18'0 0.0
2016-May-14 15:31N 43°35' E 010°18'0 0.0
2016-May-14 14:31N 43°35' E 010°18'0 0.0
2016-May-14 13:25N 43°35' E 010°18'0 0.0
2016-May-14 12:31N 43°35' E 010°18'0 0.0
2016-May-14 11:31N 43°35' E 010°18'0 0.0
2016-May-14 10:31N 43°35' E 010°18'0 0.0
2016-May-14 09:31N 43°35' E 010°18'0 0.0
2016-May-14 08:31N 43°35' E 010°18'0 0.0
2016-May-14 07:31N 43°35' E 010°18'0 0.0
2016-May-14 06:28N 43°35' E 010°18'0 0.4
2016-May-14 05:33N 43°34' E 010°18'2 1.7
2016-May-14 04:33N 43°33' E 010°18'0 0.0
2016-May-14 03:33N 43°33' E 010°18'0 0.0
2016-May-14 02:33N 43°33' E 010°18'0 0.0
2016-May-14 01:33N 43°33' E 010°18'0 0.0
2016-May-14 00:33N 43°33' E 010°18'0 0.0
2016-May-13 23:33N 43°33' E 010°18'0 0.0
2016-May-13 22:33N 43°33' E 010°18'0 0.0
2016-May-13 21:33N 43°33' E 010°18'0 0.0
2016-May-13 20:33N 43°33' E 010°18'0 0.0
2016-May-13 19:33N 43°33' E 010°18'0 0.0
2016-May-13 18:33N 43°33' E 010°18'0 0.0
2016-May-13 17:33N 43°33' E 010°18'0 0.0
2016-May-13 16:33N 43°33' E 010°18'0 0.0
2016-May-13 15:33N 43°33' E 010°18'0 0.0
2016-May-13 14:33N 43°33' E 010°18'0 0.0
2016-May-13 13:33N 43°33' E 010°18'0 0.0
2016-May-13 12:30N 43°33' E 010°18'0 0.0
2016-May-13 11:33N 43°33' E 010°18'0 0.0
2016-May-13 10:33N 43°33' E 010°18'0 0.0
2016-May-13 09:33N 43°33' E 010°18'0 0.0
2016-May-13 08:33N 43°33' E 010°18'0 0.0
2016-May-13 07:33N 43°33' E 010°18'0 0.0
2016-May-13 06:33N 43°33' E 010°18'0 0.0
2016-May-13 05:33N 43°33' E 010°18'0 0.0
2016-May-13 04:33N 43°33' E 010°18'0 0.0
2016-May-13 03:33N 43°33' E 010°18'0 0.0
2016-May-13 02:30N 43°33' E 010°18'0 0.0
2016-May-13 01:33N 43°33' E 010°18'0 0.0
2016-May-13 00:33N 43°33' E 010°18'0 0.0
2016-May-12 23:33N 43°33' E 010°18'0 0.0
2016-May-12 22:33N 43°33' E 010°18'0 0.0
2016-May-12 21:33N 43°33' E 010°18'0 0.0
2016-May-12 20:33N 43°33' E 010°18'2 1.9
2016-May-12 19:28N 43°35' E 010°18'0 0.0
2016-May-12 17:19N 43°35' E 010°18'0 0.0
2016-May-12 16:34N 43°35' E 010°18'2 2.3
2016-May-12 15:33N 43°33' E 010°17'32222.7
2016-May-12 01:22N 41°38' E 003°29'2022.7
2016-May-12 00:29N 41°31' E 003°03'2423.4
2016-May-11 23:28N 41°22' E 002°34'1819.6
2016-May-11 22:33N 41°19' E 002°10'3 2.7
2016-May-11 21:29N 41°22' E 002°11'0 0.0
2016-May-11 20:32N 41°22' E 002°11'0 0.0
2016-May-11 18:32N 41°22' E 002°11'2 1.6
2016-May-11 17:33N 41°20' E 002°10'1414.0
2016-May-11 16:33N 41°07' E 002°05'2221.8
2016-May-11 15:33N 40°47' E 001°52'2221.7
2016-May-11 14:33N 40°28' E 001°38'2221.6
2016-May-11 13:33N 40°09' E 001°25'  
Track history (hours):
 
Tides and Currents Weather Stations Pressure Air Temp Water Temp Dewpoint Dewpoint Depression Visibility Wind Speed Wind Dir Waves Ship Positions

Ikarus

Last reported at 2016-May-21 10:05 UTC. Time now 2016-Aug-26 03:16 UTC.
Position N 40°50' E 014°16'.
Warning: this ship's position is months out of date.

Length 200 m; draft 6.2 m.

Type: Passenger vessel. MMSI: 239513000.

Date/timePositionNaut miles runAvg speedWind from/ knotsBaromVisibWave heightAir tempDewpointWater temp
2016-May-21 10:05N 40°50' E 014°16'0 0.0
2016-May-21 09:29N 40°50' E 014°16'0 0.0
2016-May-21 08:29N 40°50' E 014°16'0 0.0
2016-May-21 07:23N 40°50' E 014°16'0 0.0
2016-May-21 06:05N 40°50' E 014°16'0 0.0
2016-May-21 04:29N 40°50' E 014°16'0 0.0
2016-May-21 03:29N 40°50' E 014°16'0 0.0
2016-May-21 02:29N 40°50' E 014°16'0 0.0
2016-May-21 01:29N 40°50' E 014°16'0 0.0
2016-May-21 00:23N 40°50' E 014°16'0 0.0
2016-May-20 23:29N 40°50' E 014°16'0 0.0
2016-May-20 22:29N 40°50' E 014°16'0 0.0
2016-May-20 21:23N 40°50' E 014°16'0 0.0
2016-May-20 20:29N 40°50' E 014°16'0 0.0
2016-May-20 19:23N 40°50' E 014°16'0 0.0
2016-May-20 18:29N 40°50' E 014°16'0 0.0
2016-May-20 17:23N 40°50' E 014°16'0 0.0
2016-May-20 16:29N 40°50' E 014°16'0 0.0
2016-May-20 15:29N 40°50' E 014°16'0 0.0
2016-May-20 14:29N 40°50' E 014°16'0 0.0
2016-May-20 13:29N 40°50' E 014°16'0 0.0
2016-May-20 12:05N 40°50' E 014°16'0 0.0
2016-May-20 11:29N 40°50' E 014°16'0 0.0
2016-May-20 09:18N 40°50' E 014°16'6 8.0
2016-May-20 08:33N 40°45' E 014°14'1918.6
2016-May-20 07:33N 40°39' E 013°51'2020.4
2016-May-20 06:34N 40°43' E 013°24'2522.9
2016-May-20 05:27N 40°48' E 012°52'13723.2
2016-May-19 23:33N 42°21' E 010°36'4921.9
2016-May-19 21:20N 43°04' E 010°07'1925.2
2016-May-19 20:34N 43°23' E 010°11'1312.6
2016-May-19 19:33N 43°35' E 010°18'0 0.0
2016-May-19 18:33N 43°35' E 010°18'0 0.0
2016-May-19 17:33N 43°35' E 010°18'0 0.0
2016-May-19 16:33N 43°35' E 010°18'0 0.2
2016-May-19 15:34N 43°35' E 010°18'6 6.2
2016-May-19 14:34N 43°30' E 010°12'2423.6
2016-May-19 13:34N 43°27' E 009°40'2424.3
2016-May-19 12:34N 43°18' E 009°09'33223.7
2016-May-18 22:33N 41°20' E 002°10'2 0.6
2016-May-18 18:33N 41°22' E 002°11'6 5.7
2016-May-18 17:33N 41°16' E 002°11'2020.0
2016-May-18 16:33N 40°58' E 001°59'2121.5
2016-May-18 15:33N 40°39' E 001°46'2221.8
2016-May-18 14:33N 40°20' E 001°33'2221.8
2016-May-18 13:33N 40°00' E 001°20'2221.9
2016-May-18 12:33N 39°40' E 001°07'2221.9
2016-May-18 11:33N 39°21' E 000°54'2221.5
2016-May-18 10:33N 39°02' E 000°41'2421.7
2016-May-18 09:28N 38°42' E 000°26'1921.0
2016-May-18 08:33N 38°25' E 000°13'2121.5
2016-May-18 07:33N 38°07' W 000°02'2120.7
2016-May-18 06:33N 37°50' W 000°16'2120.9
2016-May-18 05:33N 37°33' W 000°31'2120.7
2016-May-18 04:33N 37°19' W 000°51'2220.7
2016-May-18 03:28N 37°04' W 001°12'20520.7
2016-May-17 17:33N 35°59' W 005°13'14 1.3
2016-May-17 07:06N 35°56' W 005°30'612.0
2016-May-17 06:33N 35°60' W 005°23'21915.1
2016-May-16 16:03N 37°12' W 001°06'816.7
2016-May-16 15:33N 37°18' W 000°58'1716.8
2016-May-16 14:34N 37°29' W 000°42'1716.6
2016-May-16 13:34N 37°41' W 000°28'1716.7
2016-May-16 12:33N 37°55' W 000°16'1716.9
2016-May-16 11:33N 38°09' W 000°05'1716.9
2016-May-16 10:33N 38°23' E 000°07'5116.8
2016-May-16 07:31N 39°07' E 000°40'4916.6
2016-May-16 04:33N 39°51' E 001°10'1716.7
2016-May-16 03:33N 40°06' E 001°20'1717.1
2016-May-16 02:33N 40°20' E 001°31'1716.7
2016-May-16 01:33N 40°35' E 001°42'1616.2
2016-May-16 00:33N 40°50' E 001°51'1716.5
2016-May-15 23:33N 41°04' E 002°02'1515.2
2016-May-15 22:33N 41°18' E 002°11'4 4.1
2016-May-15 21:32N 41°22' E 002°11'5 0.7
2016-May-15 15:17N 41°17' E 002°11'1115.5
2016-May-15 14:33N 41°23' E 002°24'37218.6
2016-May-14 18:33N 43°32' E 010°17'3 2.5
2016-May-14 17:31N 43°35' E 010°18'0 0.0
2016-May-14 16:28N 43°35' E 010°18'0 0.0
2016-May-14 15:31N 43°35' E 010°18'0 0.0
2016-May-14 14:31N 43°35' E 010°18'0 0.0
2016-May-14 13:25N 43°35' E 010°18'0 0.0
2016-May-14 12:31N 43°35' E 010°18'0 0.0
2016-May-14 11:31N 43°35' E 010°18'0 0.0
2016-May-14 10:31N 43°35' E 010°18'0 0.0
2016-May-14 09:31N 43°35' E 010°18'0 0.0
2016-May-14 08:31N 43°35' E 010°18'0 0.0
2016-May-14 07:31N 43°35' E 010°18'0 0.0
2016-May-14 06:28N 43°35' E 010°18'0 0.4
2016-May-14 05:33N 43°34' E 010°18'2 1.7
2016-May-14 04:33N 43°33' E 010°18'0 0.0
2016-May-14 03:33N 43°33' E 010°18'0 0.0
2016-May-14 02:33N 43°33' E 010°18'0 0.0
2016-May-14 01:33N 43°33' E 010°18'0 0.0
2016-May-14 00:33N 43°33' E 010°18'0 0.0
2016-May-13 23:33N 43°33' E 010°18'0 0.0
2016-May-13 22:33N 43°33' E 010°18'0 0.0
2016-May-13 21:33N 43°33' E 010°18'0 0.0
2016-May-13 20:33N 43°33' E 010°18'0 0.0
2016-May-13 19:33N 43°33' E 010°18'0 0.0
2016-May-13 18:33N 43°33' E 010°18'0 0.0
2016-May-13 17:33N 43°33' E 010°18'0 0.0
2016-May-13 16:33N 43°33' E 010°18'0 0.0
2016-May-13 15:33N 43°33' E 010°18'0 0.0
2016-May-13 14:33N 43°33' E 010°18'0 0.0
2016-May-13 13:33N 43°33' E 010°18'0 0.0
2016-May-13 12:30N 43°33' E 010°18'0 0.0
2016-May-13 11:33N 43°33' E 010°18'0 0.0
2016-May-13 10:33N 43°33' E 010°18'0 0.0
2016-May-13 09:33N 43°33' E 010°18'0 0.0
2016-May-13 08:33N 43°33' E 010°18'0 0.0
2016-May-13 07:33N 43°33' E 010°18'0 0.0
2016-May-13 06:33N 43°33' E 010°18'0 0.0
2016-May-13 05:33N 43°33' E 010°18'0 0.0
2016-May-13 04:33N 43°33' E 010°18'0 0.0
2016-May-13 03:33N 43°33' E 010°18'0 0.0
2016-May-13 02:30N 43°33' E 010°18'0 0.0
2016-May-13 01:33N 43°33' E 010°18'0 0.0
2016-May-13 00:33N 43°33' E 010°18'0 0.0
2016-May-12 23:33N 43°33' E 010°18'0 0.0
2016-May-12 22:33N 43°33' E 010°18'0 0.0
2016-May-12 21:33N 43°33' E 010°18'0 0.0
2016-May-12 20:33N 43°33' E 010°18'2 1.9
2016-May-12 19:28N 43°35' E 010°18'0 0.0
2016-May-12 17:19N 43°35' E 010°18'0 0.0
2016-May-12 16:34N 43°35' E 010°18'2 2.3
2016-May-12 15:33N 43°33' E 010°17'32222.7
2016-May-12 01:22N 41°38' E 003°29'2022.7
2016-May-12 00:29N 41°31' E 003°03'2423.4
2016-May-11 23:28N 41°22' E 002°34'1819.6
2016-May-11 22:33N 41°19' E 002°10'3 2.7
2016-May-11 21:29N 41°22' E 002°11'0 0.0
2016-May-11 20:32N 41°22' E 002°11'0 0.0
2016-May-11 18:32N 41°22' E 002°11'2 1.6
2016-May-11 17:33N 41°20' E 002°10'1414.0
2016-May-11 16:33N 41°07' E 002°05'2221.8
2016-May-11 15:33N 40°47' E 001°52'2221.7
2016-May-11 14:33N 40°28' E 001°38'2221.6
2016-May-11 13:33N 40°09' E 001°25'  

Dump ship's entire track history